sensor_id;sensor_type;location;lat;lon;timestamp;P1;durP1;ratioP1;P2;durP2;ratioP2
14975;SDS011;7584;60.468;25.126;2023-02-15T00:01:20;6.13;;;2.10;;
14975;SDS011;7584;60.468;25.126;2023-02-15T00:03:47;4.47;;;2.07;;
14975;SDS011;7584;60.468;25.126;2023-02-15T00:06:13;2.33;;;1.50;;
14975;SDS011;7584;60.468;25.126;2023-02-15T00:08:38;4.17;;;1.80;;
14975;SDS011;7584;60.468;25.126;2023-02-15T00:11:07;8.37;;;1.60;;
14975;SDS011;7584;60.468;25.126;2023-02-15T00:13:33;2.00;;;1.33;;
14975;SDS011;7584;60.468;25.126;2023-02-15T00:16:03;7.53;;;1.90;;
14975;SDS011;7584;60.468;25.126;2023-02-15T00:18:29;2.80;;;1.40;;
14975;SDS011;7584;60.468;25.126;2023-02-15T00:20:54;7.77;;;2.10;;
14975;SDS011;7584;60.468;25.126;2023-02-15T00:23:20;3.63;;;1.53;;
14975;SDS011;7584;60.468;25.126;2023-02-15T00:25:45;4.87;;;1.77;;
14975;SDS011;7584;60.468;25.126;2023-02-15T00:28:10;4.00;;;1.80;;
14975;SDS011;7584;60.468;25.126;2023-02-15T00:30:35;4.80;;;1.90;;
14975;SDS011;7584;60.468;25.126;2023-02-15T00:33:01;3.77;;;1.77;;
14975;SDS011;7584;60.468;25.126;2023-02-15T00:35:26;3.17;;;1.60;;
14975;SDS011;7584;60.468;25.126;2023-02-15T00:37:51;4.63;;;1.70;;
14975;SDS011;7584;60.468;25.126;2023-02-15T00:40:17;3.77;;;1.57;;
14975;SDS011;7584;60.468;25.126;2023-02-15T00:42:42;5.70;;;1.83;;
14975;SDS011;7584;60.468;25.126;2023-02-15T00:45:08;4.77;;;1.77;;
14975;SDS011;7584;60.468;25.126;2023-02-15T00:47:34;3.80;;;1.80;;
14975;SDS011;7584;60.468;25.126;2023-02-15T00:49:59;4.10;;;1.83;;
14975;SDS011;7584;60.468;25.126;2023-02-15T00:52:24;4.23;;;2.03;;
14975;SDS011;7584;60.468;25.126;2023-02-15T00:54:49;3.57;;;1.70;;
14975;SDS011;7584;60.468;25.126;2023-02-15T00:57:15;3.73;;;1.90;;
14975;SDS011;7584;60.468;25.126;2023-02-15T00:59:45;3.33;;;2.13;;
14975;SDS011;7584;60.468;25.126;2023-02-15T01:02:10;6.07;;;2.40;;
14975;SDS011;7584;60.468;25.126;2023-02-15T01:04:35;8.93;;;2.73;;
14975;SDS011;7584;60.468;25.126;2023-02-15T01:07:01;7.13;;;2.33;;
14975;SDS011;7584;60.468;25.126;2023-02-15T01:09:28;10.30;;;3.17;;
14975;SDS011;7584;60.468;25.126;2023-02-15T01:11:53;8.57;;;2.87;;
14975;SDS011;7584;60.468;25.126;2023-02-15T01:14:19;6.93;;;3.10;;
14975;SDS011;7584;60.468;25.126;2023-02-15T01:16:44;5.03;;;2.60;;
14975;SDS011;7584;60.468;25.126;2023-02-15T01:19:09;7.83;;;3.03;;
14975;SDS011;7584;60.468;25.126;2023-02-15T01:21:35;10.37;;;3.33;;
14975;SDS011;7584;60.468;25.126;2023-02-15T01:24:00;10.87;;;2.97;;
14975;SDS011;7584;60.468;25.126;2023-02-15T01:26:26;8.93;;;3.43;;
14975;SDS011;7584;60.468;25.126;2023-02-15T01:28:51;8.10;;;2.73;;
14975;SDS011;7584;60.468;25.126;2023-02-15T01:31:17;9.67;;;2.97;;
14975;SDS011;7584;60.468;25.126;2023-02-15T01:33:43;12.43;;;3.87;;
14975;SDS011;7584;60.468;25.126;2023-02-15T01:36:08;6.90;;;2.97;;
14975;SDS011;7584;60.468;25.126;2023-02-15T01:38:34;12.97;;;3.27;;
14975;SDS011;7584;60.468;25.126;2023-02-15T01:40:59;10.20;;;3.20;;
14975;SDS011;7584;60.468;25.126;2023-02-15T01:43:51;7.90;;;3.87;;
14975;SDS011;7584;60.468;25.126;2023-02-15T01:46:17;6.07;;;3.20;;
14975;SDS011;7584;60.468;25.126;2023-02-15T01:48:55;10.07;;;3.70;;
14975;SDS011;7584;60.468;25.126;2023-02-15T01:51:22;12.47;;;2.60;;
14975;SDS011;7584;60.468;25.126;2023-02-15T01:53:50;12.03;;;3.20;;
14975;SDS011;7584;60.468;25.126;2023-02-15T01:56:18;11.17;;;2.50;;
14975;SDS011;7584;60.468;25.126;2023-02-15T01:58:44;11.80;;;2.90;;
14975;SDS011;7584;60.468;25.126;2023-02-15T02:01:10;12.70;;;2.83;;
14975;SDS011;7584;60.468;25.126;2023-02-15T02:06:04;10.13;;;3.20;;
14975;SDS011;7584;60.468;25.126;2023-02-15T02:08:29;11.20;;;2.47;;
14975;SDS011;7584;60.468;25.126;2023-02-15T02:10:54;9.43;;;3.10;;
14975;SDS011;7584;60.468;25.126;2023-02-15T02:13:20;8.87;;;2.70;;
14975;SDS011;7584;60.468;25.126;2023-02-15T02:15:59;11.80;;;2.70;;
14975;SDS011;7584;60.468;25.126;2023-02-15T02:18:33;10.93;;;2.60;;
14975;SDS011;7584;60.468;25.126;2023-02-15T02:21:21;13.97;;;2.90;;
14975;SDS011;7584;60.468;25.126;2023-02-15T02:23:57;13.03;;;2.77;;
14975;SDS011;7584;60.468;25.126;2023-02-15T02:37:03;11.83;;;2.70;;
14975;SDS011;7584;60.468;25.126;2023-02-15T02:42:05;23.17;;;2.90;;
14975;SDS011;7584;60.468;25.126;2023-02-15T02:49:58;16.80;;;2.87;;
14975;SDS011;7584;60.468;25.126;2023-02-15T02:52:35;29.23;;;3.80;;
14975;SDS011;7584;60.468;25.126;2023-02-15T02:55:01;12.10;;;3.03;;
14975;SDS011;7584;60.468;25.126;2023-02-15T02:57:26;25.97;;;3.60;;
14975;SDS011;7584;60.468;25.126;2023-02-15T02:59:52;14.90;;;3.33;;
14975;SDS011;7584;60.468;25.126;2023-02-15T03:02:21;28.37;;;3.33;;
14975;SDS011;7584;60.468;25.126;2023-02-15T03:04:50;22.73;;;3.70;;
14975;SDS011;7584;60.468;25.126;2023-02-15T03:07:23;31.47;;;4.27;;
14975;SDS011;7584;60.468;25.126;2023-02-15T03:09:50;24.40;;;3.53;;
14975;SDS011;7584;60.468;25.126;2023-02-15T03:12:20;29.20;;;3.33;;
14975;SDS011;7584;60.468;25.126;2023-02-15T03:14:47;23.57;;;3.10;;
14975;SDS011;7584;60.468;25.126;2023-02-15T03:17:13;21.10;;;3.63;;
14975;SDS011;7584;60.468;25.126;2023-02-15T03:19:39;11.07;;;2.27;;
14975;SDS011;7584;60.468;25.126;2023-02-15T03:22:10;22.50;;;2.60;;
14975;SDS011;7584;60.468;25.126;2023-02-15T03:24:56;18.70;;;2.97;;
14975;SDS011;7584;60.468;25.126;2023-02-15T03:27:24;27.67;;;3.47;;
14975;SDS011;7584;60.468;25.126;2023-02-15T03:29:52;19.13;;;2.80;;
14975;SDS011;7584;60.468;25.126;2023-02-15T03:32:19;12.20;;;2.33;;
14975;SDS011;7584;60.468;25.126;2023-02-15T03:34:44;20.30;;;2.87;;
14975;SDS011;7584;60.468;25.126;2023-02-15T03:37:13;21.67;;;2.70;;
14975;SDS011;7584;60.468;25.126;2023-02-15T03:42:10;29.77;;;3.97;;
14975;SDS011;7584;60.468;25.126;2023-02-15T03:44:46;20.53;;;2.83;;
14975;SDS011;7584;60.468;25.126;2023-02-15T03:47:13;28.77;;;3.00;;
14975;SDS011;7584;60.468;25.126;2023-02-15T03:50:02;20.83;;;3.23;;
14975;SDS011;7584;60.468;25.126;2023-02-15T03:52:26;15.40;;;2.20;;
14975;SDS011;7584;60.468;25.126;2023-02-15T03:54:52;17.13;;;3.10;;
14975;SDS011;7584;60.468;25.126;2023-02-15T03:57:22;5.70;;;1.93;;
14975;SDS011;7584;60.468;25.126;2023-02-15T04:05:25;16.13;;;2.60;;
14975;SDS011;7584;60.468;25.126;2023-02-15T04:07:50;28.97;;;3.20;;
14975;SDS011;7584;60.468;25.126;2023-02-15T04:10:15;43.33;;;4.27;;
14975;SDS011;7584;60.468;25.126;2023-02-15T04:12:59;29.20;;;3.50;;
14975;SDS011;7584;60.468;25.126;2023-02-15T04:15:25;24.80;;;2.87;;
14975;SDS011;7584;60.468;25.126;2023-02-15T04:18:09;19.47;;;2.63;;
14975;SDS011;7584;60.468;25.126;2023-02-15T04:20:34;41.83;;;3.97;;
14975;SDS011;7584;60.468;25.126;2023-02-15T04:23:18;25.73;;;3.47;;
14975;SDS011;7584;60.468;25.126;2023-02-15T04:26:03;24.63;;;3.10;;
14975;SDS011;7584;60.468;25.126;2023-02-15T04:28:29;25.60;;;3.20;;
14975;SDS011;7584;60.468;25.126;2023-02-15T04:30:54;21.73;;;2.50;;
14975;SDS011;7584;60.468;25.126;2023-02-15T04:33:20;35.10;;;3.33;;
14975;SDS011;7584;60.468;25.126;2023-02-15T04:35:45;29.23;;;3.07;;
14975;SDS011;7584;60.468;25.126;2023-02-15T04:38:10;26.30;;;2.93;;
14975;SDS011;7584;60.468;25.126;2023-02-15T04:40:36;35.73;;;3.43;;
14975;SDS011;7584;60.468;25.126;2023-02-15T04:43:01;41.47;;;4.23;;
14975;SDS011;7584;60.468;25.126;2023-02-15T04:45:26;32.77;;;4.17;;
14975;SDS011;7584;60.468;25.126;2023-02-15T04:47:52;38.83;;;4.20;;
14975;SDS011;7584;60.468;25.126;2023-02-15T04:50:17;49.67;;;4.43;;
14975;SDS011;7584;60.468;25.126;2023-02-15T04:52:42;36.33;;;4.33;;
14975;SDS011;7584;60.468;25.126;2023-02-15T04:55:08;30.30;;;3.90;;
14975;SDS011;7584;60.468;25.126;2023-02-15T04:57:33;15.97;;;3.13;;
14975;SDS011;7584;60.468;25.126;2023-02-15T04:59:59;40.07;;;4.10;;
14975;SDS011;7584;60.468;25.126;2023-02-15T05:02:24;29.07;;;4.00;;
14975;SDS011;7584;60.468;25.126;2023-02-15T05:04:49;37.83;;;5.00;;
14975;SDS011;7584;60.468;25.126;2023-02-15T05:07:15;37.33;;;5.17;;
14975;SDS011;7584;60.468;25.126;2023-02-15T05:09:40;62.43;;;5.50;;
14975;SDS011;7584;60.468;25.126;2023-02-15T05:12:05;26.90;;;4.33;;
14975;SDS011;7584;60.468;25.126;2023-02-15T05:14:31;78.90;;;7.23;;
14975;SDS011;7584;60.468;25.126;2023-02-15T05:16:56;62.50;;;6.80;;
14975;SDS011;7584;60.468;25.126;2023-02-15T05:19:23;40.00;;;4.70;;
14975;SDS011;7584;60.468;25.126;2023-02-15T05:21:49;31.53;;;4.50;;
14975;SDS011;7584;60.468;25.126;2023-02-15T05:24:14;36.13;;;4.80;;
14975;SDS011;7584;60.468;25.126;2023-02-15T05:26:58;59.13;;;5.33;;
14975;SDS011;7584;60.468;25.126;2023-02-15T05:29:42;45.57;;;4.90;;
14975;SDS011;7584;60.468;25.126;2023-02-15T05:32:07;48.40;;;5.83;;
14975;SDS011;7584;60.468;25.126;2023-02-15T05:34:33;50.63;;;5.13;;
14975;SDS011;7584;60.468;25.126;2023-02-15T05:36:58;40.20;;;5.10;;
14975;SDS011;7584;60.468;25.126;2023-02-15T05:39:23;45.40;;;4.93;;
14975;SDS011;7584;60.468;25.126;2023-02-15T05:41:48;45.17;;;5.10;;
14975;SDS011;7584;60.468;25.126;2023-02-15T05:44:14;37.93;;;4.77;;
14975;SDS011;7584;60.468;25.126;2023-02-15T05:46:39;41.50;;;5.77;;
14975;SDS011;7584;60.468;25.126;2023-02-15T05:49:04;82.87;;;7.67;;
14975;SDS011;7584;60.468;25.126;2023-02-15T05:51:30;44.33;;;5.87;;
14975;SDS011;7584;60.468;25.126;2023-02-15T05:53:55;58.60;;;6.47;;
14975;SDS011;7584;60.468;25.126;2023-02-15T05:56:21;52.90;;;5.83;;
14975;SDS011;7584;60.468;25.126;2023-02-15T05:58:46;86.40;;;7.13;;
14975;SDS011;7584;60.468;25.126;2023-02-15T06:01:15;65.90;;;7.23;;
14975;SDS011;7584;60.468;25.126;2023-02-15T06:03:42;80.53;;;7.70;;
14975;SDS011;7584;60.468;25.126;2023-02-15T06:06:08;59.40;;;6.70;;
14975;SDS011;7584;60.468;25.126;2023-02-15T06:08:33;53.90;;;7.23;;
14975;SDS011;7584;60.468;25.126;2023-02-15T06:10:59;46.37;;;6.23;;
14975;SDS011;7584;60.468;25.126;2023-02-15T06:13:25;78.00;;;7.47;;
14975;SDS011;7584;60.468;25.126;2023-02-15T06:15:52;60.63;;;6.50;;
14975;SDS011;7584;60.468;25.126;2023-02-15T06:18:18;74.20;;;6.77;;
14975;SDS011;7584;60.468;25.126;2023-02-15T06:20:45;57.87;;;6.03;;
14975;SDS011;7584;60.468;25.126;2023-02-15T06:23:10;51.97;;;5.83;;
14975;SDS011;7584;60.468;25.126;2023-02-15T06:25:35;69.33;;;7.03;;
14975;SDS011;7584;60.468;25.126;2023-02-15T06:28:01;44.20;;;5.80;;
14975;SDS011;7584;60.468;25.126;2023-02-15T06:30:26;49.73;;;7.13;;
14975;SDS011;7584;60.468;25.126;2023-02-15T06:32:51;10.83;;;4.27;;
14975;SDS011;7584;60.468;25.126;2023-02-15T06:35:16;35.47;;;5.87;;
14975;SDS011;7584;60.468;25.126;2023-02-15T06:37:42;25.50;;;4.90;;
14975;SDS011;7584;60.468;25.126;2023-02-15T06:40:09;21.47;;;4.10;;
14975;SDS011;7584;60.468;25.126;2023-02-15T06:42:35;21.73;;;4.33;;
14975;SDS011;7584;60.468;25.126;2023-02-15T06:45:00;36.83;;;4.67;;
14975;SDS011;7584;60.468;25.126;2023-02-15T06:47:25;17.37;;;3.60;;
14975;SDS011;7584;60.468;25.126;2023-02-15T06:49:51;22.53;;;3.70;;
14975;SDS011;7584;60.468;25.126;2023-02-15T06:52:16;41.30;;;4.33;;
14975;SDS011;7584;60.468;25.126;2023-02-15T06:54:41;23.63;;;3.50;;
14975;SDS011;7584;60.468;25.126;2023-02-15T06:57:06;25.67;;;3.17;;
14975;SDS011;7584;60.468;25.126;2023-02-15T06:59:32;30.23;;;3.67;;
14975;SDS011;7584;60.468;25.126;2023-02-15T07:01:57;88.40;;;6.17;;
14975;SDS011;7584;60.468;25.126;2023-02-15T07:04:23;33.83;;;3.70;;
14975;SDS011;7584;60.468;25.126;2023-02-15T07:06:48;37.87;;;4.30;;
14975;SDS011;7584;60.468;25.126;2023-02-15T07:09:14;19.80;;;3.90;;
14975;SDS011;7584;60.468;25.126;2023-02-15T07:11:39;45.90;;;5.30;;
14975;SDS011;7584;60.468;25.126;2023-02-15T07:14:23;24.20;;;4.03;;
14975;SDS011;7584;60.468;25.126;2023-02-15T07:16:48;71.33;;;6.70;;
14975;SDS011;7584;60.468;25.126;2023-02-15T07:19:13;31.17;;;4.43;;
14975;SDS011;7584;60.468;25.126;2023-02-15T07:21:39;31.13;;;5.00;;
14975;SDS011;7584;60.468;25.126;2023-02-15T07:24:04;12.80;;;3.27;;
14975;SDS011;7584;60.468;25.126;2023-02-15T07:26:31;40.93;;;4.20;;
14975;SDS011;7584;60.468;25.126;2023-02-15T07:28:56;30.40;;;4.30;;
14975;SDS011;7584;60.468;25.126;2023-02-15T07:31:22;44.87;;;5.40;;
14975;SDS011;7584;60.468;25.126;2023-02-15T07:33:47;35.93;;;4.23;;
14975;SDS011;7584;60.468;25.126;2023-02-15T07:36:12;80.27;;;6.07;;
14975;SDS011;7584;60.468;25.126;2023-02-15T07:38:39;48.10;;;4.73;;
14975;SDS011;7584;60.468;25.126;2023-02-15T07:41:05;38.53;;;4.90;;
14975;SDS011;7584;60.468;25.126;2023-02-15T07:43:32;69.37;;;7.10;;
14975;SDS011;7584;60.468;25.126;2023-02-15T07:46:05;82.50;;;7.70;;
14975;SDS011;7584;60.468;25.126;2023-02-15T07:48:32;28.20;;;4.07;;
14975;SDS011;7584;60.468;25.126;2023-02-15T07:50:58;45.17;;;5.63;;
14975;SDS011;7584;60.468;25.126;2023-02-15T07:53:24;26.07;;;3.53;;
14975;SDS011;7584;60.468;25.126;2023-02-15T07:55:49;62.07;;;6.27;;
14975;SDS011;7584;60.468;25.126;2023-02-15T07:58:14;121.60;;;9.37;;
14975;SDS011;7584;60.468;25.126;2023-02-15T08:00:39;67.67;;;5.93;;
14975;SDS011;7584;60.468;25.126;2023-02-15T08:03:24;39.07;;;5.63;;
14975;SDS011;7584;60.468;25.126;2023-02-15T08:05:54;59.67;;;6.40;;
14975;SDS011;7584;60.468;25.126;2023-02-15T08:08:20;38.43;;;5.23;;
14975;SDS011;7584;60.468;25.126;2023-02-15T08:13:48;97.37;;;8.77;;
14975;SDS011;7584;60.468;25.126;2023-02-15T08:16:21;77.40;;;8.63;;
14975;SDS011;7584;60.468;25.126;2023-02-15T08:18:47;40.67;;;5.77;;
14975;SDS011;7584;60.468;25.126;2023-02-15T08:21:12;62.13;;;6.87;;
14975;SDS011;7584;60.468;25.126;2023-02-15T08:23:38;86.40;;;8.27;;
14975;SDS011;7584;60.468;25.126;2023-02-15T08:26:03;56.93;;;7.50;;
14975;SDS011;7584;60.468;25.126;2023-02-15T08:28:29;61.70;;;6.87;;
14975;SDS011;7584;60.468;25.126;2023-02-15T08:30:54;49.90;;;6.13;;
14975;SDS011;7584;60.468;25.126;2023-02-15T08:33:20;64.33;;;6.40;;
14975;SDS011;7584;60.468;25.126;2023-02-15T08:35:45;49.03;;;6.13;;
14975;SDS011;7584;60.468;25.126;2023-02-15T08:38:10;52.23;;;6.80;;
14975;SDS011;7584;60.468;25.126;2023-02-15T08:40:35;26.23;;;5.40;;
14975;SDS011;7584;60.468;25.126;2023-02-15T08:43:03;38.90;;;5.77;;
14975;SDS011;7584;60.468;25.126;2023-02-15T08:45:28;55.53;;;5.63;;
14975;SDS011;7584;60.468;25.126;2023-02-15T08:47:53;36.63;;;5.90;;
14975;SDS011;7584;60.468;25.126;2023-02-15T08:50:18;39.77;;;6.03;;
14975;SDS011;7584;60.468;25.126;2023-02-15T08:52:44;24.93;;;5.20;;
14975;SDS011;7584;60.468;25.126;2023-02-15T08:55:09;44.23;;;5.77;;
14975;SDS011;7584;60.468;25.126;2023-02-15T08:57:34;37.63;;;5.57;;
14975;SDS011;7584;60.468;25.126;2023-02-15T08:59:59;24.73;;;5.10;;
14975;SDS011;7584;60.468;25.126;2023-02-15T09:02:25;32.30;;;6.40;;
14975;SDS011;7584;60.468;25.126;2023-02-15T09:04:50;26.23;;;5.10;;
14975;SDS011;7584;60.468;25.126;2023-02-15T09:07:16;26.10;;;5.37;;
14975;SDS011;7584;60.468;25.126;2023-02-15T09:09:43;32.00;;;5.57;;
14975;SDS011;7584;60.468;25.126;2023-02-15T09:12:10;36.13;;;5.87;;
14975;SDS011;7584;60.468;25.126;2023-02-15T09:14:35;34.27;;;5.83;;
14975;SDS011;7584;60.468;25.126;2023-02-15T09:17:01;24.07;;;6.03;;
14975;SDS011;7584;60.468;25.126;2023-02-15T09:19:26;22.40;;;5.10;;
14975;SDS011;7584;60.468;25.126;2023-02-15T09:21:51;39.97;;;6.47;;
14975;SDS011;7584;60.468;25.126;2023-02-15T09:24:16;27.47;;;5.80;;
14975;SDS011;7584;60.468;25.126;2023-02-15T09:26:43;28.83;;;5.40;;
14975;SDS011;7584;60.468;25.126;2023-02-15T09:29:09;20.40;;;6.13;;
14975;SDS011;7584;60.468;25.126;2023-02-15T09:31:44;12.50;;;5.53;;
14975;SDS011;7584;60.468;25.126;2023-02-15T09:34:14;12.13;;;5.73;;
14975;SDS011;7584;60.468;25.126;2023-02-15T09:36:41;20.87;;;6.10;;
14975;SDS011;7584;60.468;25.126;2023-02-15T09:39:14;16.73;;;6.03;;
14975;SDS011;7584;60.468;25.126;2023-02-15T09:57:23;16.87;;;6.50;;
14975;SDS011;7584;60.468;25.126;2023-02-15T10:20:25;18.67;;;7.30;;
14975;SDS011;7584;60.468;25.126;2023-02-15T10:23:06;11.30;;;7.07;;
14975;SDS011;7584;60.468;25.126;2023-02-15T10:25:37;18.83;;;7.53;;
14975;SDS011;7584;60.468;25.126;2023-02-15T10:28:06;14.90;;;6.93;;
14975;SDS011;7584;60.468;25.126;2023-02-15T10:30:42;15.40;;;7.10;;
14975;SDS011;7584;60.468;25.126;2023-02-15T10:33:12;9.67;;;7.00;;
14975;SDS011;7584;60.468;25.126;2023-02-15T10:38:08;11.30;;;7.00;;
14975;SDS011;7584;60.468;25.126;2023-02-15T10:50:59;13.20;;;6.53;;
14975;SDS011;7584;60.468;25.126;2023-02-15T10:56:13;8.93;;;6.47;;
14975;SDS011;7584;60.468;25.126;2023-02-15T11:06:50;8.67;;;6.43;;
14975;SDS011;7584;60.468;25.126;2023-02-15T11:09:17;8.60;;;6.07;;
14975;SDS011;7584;60.468;25.126;2023-02-15T11:11:44;9.95;;;6.30;;
14975;SDS011;7584;60.468;25.126;2023-02-15T11:14:19;8.95;;;6.10;;
14975;SDS011;7584;60.468;25.126;2023-02-15T11:16:46;8.93;;;5.68;;
14975;SDS011;7584;60.468;25.126;2023-02-15T11:19:17;13.75;;;6.15;;
14975;SDS011;7584;60.468;25.126;2023-02-15T11:21:55;10.23;;;5.63;;
14975;SDS011;7584;60.468;25.126;2023-02-15T11:24:24;4.47;;;3.95;;
14975;SDS011;7584;60.468;25.126;2023-02-15T11:34:36;6.78;;;4.28;;
14975;SDS011;7584;60.468;25.126;2023-02-15T11:37:12;8.57;;;4.90;;
14975;SDS011;7584;60.468;25.126;2023-02-15T11:39:38;8.57;;;5.93;;
14975;SDS011;7584;60.468;25.126;2023-02-15T11:42:13;11.63;;;6.03;;
14975;SDS011;7584;60.468;25.126;2023-02-15T11:47:39;9.67;;;6.60;;
14975;SDS011;7584;60.468;25.126;2023-02-15T11:50:05;11.50;;;7.07;;
14975;SDS011;7584;60.468;25.126;2023-02-15T11:52:30;12.00;;;6.90;;
14975;SDS011;7584;60.468;25.126;2023-02-15T11:54:56;10.13;;;6.70;;
14975;SDS011;7584;60.468;25.126;2023-02-15T11:57:36;12.10;;;7.33;;
14975;SDS011;7584;60.468;25.126;2023-02-15T12:02:29;10.73;;;7.07;;
14975;SDS011;7584;60.468;25.126;2023-02-15T12:04:57;9.67;;;6.37;;
14975;SDS011;7584;60.468;25.126;2023-02-15T12:07:44;12.50;;;7.37;;
14975;SDS011;7584;60.468;25.126;2023-02-15T12:12:42;12.93;;;7.23;;
14975;SDS011;7584;60.468;25.126;2023-02-15T12:15:08;13.13;;;7.30;;
14975;SDS011;7584;60.468;25.126;2023-02-15T12:17:35;11.33;;;6.53;;
14975;SDS011;7584;60.468;25.126;2023-02-15T12:20:04;13.70;;;6.83;;
14975;SDS011;7584;60.468;25.126;2023-02-15T12:22:32;8.53;;;5.10;;
14975;SDS011;7584;60.468;25.126;2023-02-15T12:25:00;7.23;;;4.47;;
14975;SDS011;7584;60.468;25.126;2023-02-15T12:27:35;7.53;;;3.73;;
14975;SDS011;7584;60.468;25.126;2023-02-15T12:30:04;5.93;;;3.27;;
14975;SDS011;7584;60.468;25.126;2023-02-15T12:32:35;7.30;;;3.43;;
14975;SDS011;7584;60.468;25.126;2023-02-15T12:35:16;5.23;;;3.03;;
14975;SDS011;7584;60.468;25.126;2023-02-15T12:37:52;6.57;;;3.77;;
14975;SDS011;7584;60.468;25.126;2023-02-15T12:40:22;6.57;;;3.50;;
14975;SDS011;7584;60.468;25.126;2023-02-15T12:42:48;6.03;;;3.50;;
14975;SDS011;7584;60.468;25.126;2023-02-15T12:45:27;6.53;;;3.70;;
14975;SDS011;7584;60.468;25.126;2023-02-15T12:50:33;7.43;;;4.67;;
14975;SDS011;7584;60.468;25.126;2023-02-15T12:55:51;9.50;;;5.03;;
14975;SDS011;7584;60.468;25.126;2023-02-15T12:58:18;7.13;;;4.77;;
14975;SDS011;7584;60.468;25.126;2023-02-15T13:00:44;9.77;;;5.23;;
14975;SDS011;7584;60.468;25.126;2023-02-15T13:03:20;10.30;;;5.07;;
14975;SDS011;7584;60.468;25.126;2023-02-15T13:05:48;7.33;;;4.60;;
14975;SDS011;7584;60.468;25.126;2023-02-15T13:08:19;8.23;;;5.17;;
14975;SDS011;7584;60.468;25.126;2023-02-15T13:10:56;9.83;;;4.90;;
14975;SDS011;7584;60.468;25.126;2023-02-15T13:13:23;6.63;;;4.10;;
14975;SDS011;7584;60.468;25.126;2023-02-15T13:15:53;6.27;;;4.10;;
14975;SDS011;7584;60.468;25.126;2023-02-15T13:18:28;6.90;;;4.07;;
14975;SDS011;7584;60.468;25.126;2023-02-15T13:20:54;5.90;;;3.57;;
14975;SDS011;7584;60.468;25.126;2023-02-15T13:23:26;7.37;;;3.87;;
14975;SDS011;7584;60.468;25.126;2023-02-15T13:25:52;5.87;;;3.70;;
14975;SDS011;7584;60.468;25.126;2023-02-15T13:28:20;7.13;;;3.50;;
14975;SDS011;7584;60.468;25.126;2023-02-15T13:30:47;7.53;;;3.77;;
14975;SDS011;7584;60.468;25.126;2023-02-15T13:33:26;6.87;;;3.37;;
14975;SDS011;7584;60.468;25.126;2023-02-15T13:38:46;7.47;;;4.23;;
14975;SDS011;7584;60.468;25.126;2023-02-15T13:41:16;6.87;;;4.57;;
14975;SDS011;7584;60.468;25.126;2023-02-15T13:46:25;7.33;;;4.50;;
14975;SDS011;7584;60.468;25.126;2023-02-15T13:51:22;11.00;;;5.93;;
14975;SDS011;7584;60.468;25.126;2023-02-15T14:01:45;5.40;;;3.80;;
14975;SDS011;7584;60.468;25.126;2023-02-15T14:12:34;5.73;;;3.10;;
14975;SDS011;7584;60.468;25.126;2023-02-15T14:22:34;7.90;;;3.20;;
14975;SDS011;7584;60.468;25.126;2023-02-15T14:30:17;6.23;;;3.53;;
14975;SDS011;7584;60.468;25.126;2023-02-15T14:32:44;18.30;;;3.50;;
14975;SDS011;7584;60.468;25.126;2023-02-15T14:35:15;7.73;;;2.73;;
14975;SDS011;7584;60.468;25.126;2023-02-15T14:37:50;5.20;;;2.60;;
14975;SDS011;7584;60.468;25.126;2023-02-15T14:48:30;15.97;;;3.30;;
14975;SDS011;7584;60.468;25.126;2023-02-15T14:50:56;6.60;;;2.67;;
14975;SDS011;7584;60.468;25.126;2023-02-15T14:53:37;13.83;;;5.23;;
14975;SDS011;7584;60.468;25.126;2023-02-15T14:58:38;5.57;;;2.20;;
14975;SDS011;7584;60.468;25.126;2023-02-15T15:01:06;6.60;;;2.30;;
14975;SDS011;7584;60.468;25.126;2023-02-15T15:03:32;4.33;;;2.17;;
14975;SDS011;7584;60.468;25.126;2023-02-15T15:05:58;3.47;;;2.20;;
14975;SDS011;7584;60.468;25.126;2023-02-15T15:08:29;4.90;;;2.40;;
14975;SDS011;7584;60.468;25.126;2023-02-15T15:10:56;7.23;;;2.57;;
14975;SDS011;7584;60.468;25.126;2023-02-15T15:21:10;7.47;;;2.30;;
14975;SDS011;7584;60.468;25.126;2023-02-15T15:26:23;5.17;;;2.87;;
14975;SDS011;7584;60.468;25.126;2023-02-15T15:49:23;4.00;;;2.70;;
14975;SDS011;7584;60.468;25.126;2023-02-15T15:51:49;3.53;;;2.67;;
14975;SDS011;7584;60.468;25.126;2023-02-15T15:54:19;3.03;;;2.57;;
14975;SDS011;7584;60.468;25.126;2023-02-15T15:56:48;3.97;;;2.77;;
14975;SDS011;7584;60.468;25.126;2023-02-15T15:59:16;3.23;;;2.87;;
14975;SDS011;7584;60.468;25.126;2023-02-15T16:01:43;3.30;;;2.50;;
14975;SDS011;7584;60.468;25.126;2023-02-15T16:04:22;5.40;;;2.60;;
14975;SDS011;7584;60.468;25.126;2023-02-15T16:06:49;7.20;;;3.20;;
14975;SDS011;7584;60.468;25.126;2023-02-15T16:09:18;3.43;;;2.57;;
14975;SDS011;7584;60.468;25.126;2023-02-15T16:11:48;4.60;;;3.20;;
14975;SDS011;7584;60.468;25.126;2023-02-15T16:14:19;14.53;;;6.70;;
14975;SDS011;7584;60.468;25.126;2023-02-15T16:16:47;4.23;;;3.17;;
14975;SDS011;7584;60.468;25.126;2023-02-15T16:19:23;4.63;;;3.23;;
14975;SDS011;7584;60.468;25.126;2023-02-15T16:21:49;4.63;;;2.87;;
14975;SDS011;7584;60.468;25.126;2023-02-15T16:29:37;5.63;;;2.90;;
14975;SDS011;7584;60.468;25.126;2023-02-15T16:32:14;3.57;;;2.90;;
14975;SDS011;7584;60.468;25.126;2023-02-15T16:34:50;4.50;;;2.87;;
14975;SDS011;7584;60.468;25.126;2023-02-15T16:37:16;5.57;;;3.00;;
14975;SDS011;7584;60.468;25.126;2023-02-15T16:39:42;3.80;;;2.43;;
14975;SDS011;7584;60.468;25.126;2023-02-15T16:42:08;3.30;;;2.50;;
14975;SDS011;7584;60.468;25.126;2023-02-15T16:44:34;3.73;;;2.80;;
14975;SDS011;7584;60.468;25.126;2023-02-15T16:46:59;3.77;;;2.70;;
14975;SDS011;7584;60.468;25.126;2023-02-15T16:49:26;3.67;;;3.00;;
14975;SDS011;7584;60.468;25.126;2023-02-15T16:54:21;4.57;;;3.30;;
14975;SDS011;7584;60.468;25.126;2023-02-15T16:56:46;5.57;;;3.13;;
14975;SDS011;7584;60.468;25.126;2023-02-15T16:59:46;4.90;;;3.70;;
14975;SDS011;7584;60.468;25.126;2023-02-15T17:02:12;6.93;;;3.80;;
14975;SDS011;7584;60.468;25.126;2023-02-15T17:04:39;4.50;;;3.40;;
14975;SDS011;7584;60.468;25.126;2023-02-15T17:07:18;5.87;;;2.97;;
14975;SDS011;7584;60.468;25.126;2023-02-15T17:09:50;6.17;;;3.90;;
14975;SDS011;7584;60.468;25.126;2023-02-15T17:15:00;9.40;;;4.77;;
14975;SDS011;7584;60.468;25.126;2023-02-15T17:17:25;7.50;;;4.70;;
14975;SDS011;7584;60.468;25.126;2023-02-15T17:19:51;9.47;;;5.43;;
14975;SDS011;7584;60.468;25.126;2023-02-15T17:22:21;8.63;;;5.10;;
14975;SDS011;7584;60.468;25.126;2023-02-15T17:24:49;7.60;;;4.37;;
14975;SDS011;7584;60.468;25.126;2023-02-15T17:27:20;9.20;;;4.83;;
14975;SDS011;7584;60.468;25.126;2023-02-15T17:29:48;9.47;;;4.70;;
14975;SDS011;7584;60.468;25.126;2023-02-15T17:32:24;6.93;;;4.30;;
14975;SDS011;7584;60.468;25.126;2023-02-15T17:34:56;10.90;;;4.33;;
14975;SDS011;7584;60.468;25.126;2023-02-15T17:37:46;7.40;;;4.70;;
14975;SDS011;7584;60.468;25.126;2023-02-15T17:40:24;8.47;;;4.23;;
14975;SDS011;7584;60.468;25.126;2023-02-15T17:42:50;10.53;;;4.70;;
14975;SDS011;7584;60.468;25.126;2023-02-15T17:45:16;10.13;;;5.17;;
14975;SDS011;7584;60.468;25.126;2023-02-15T17:47:41;10.43;;;5.70;;
14975;SDS011;7584;60.468;25.126;2023-02-15T17:50:07;13.57;;;10.00;;
14975;SDS011;7584;60.468;25.126;2023-02-15T17:52:32;9.87;;;6.70;;
14975;SDS011;7584;60.468;25.126;2023-02-15T17:54:58;10.77;;;6.93;;
14975;SDS011;7584;60.468;25.126;2023-02-15T17:57:42;12.20;;;7.00;;
14975;SDS011;7584;60.468;25.126;2023-02-15T18:00:12;11.73;;;6.40;;
14975;SDS011;7584;60.468;25.126;2023-02-15T18:02:56;10.07;;;6.37;;
14975;SDS011;7584;60.468;25.126;2023-02-15T18:05:40;9.80;;;6.20;;
14975;SDS011;7584;60.468;25.126;2023-02-15T18:08:25;10.63;;;6.33;;
14975;SDS011;7584;60.468;25.126;2023-02-15T18:11:09;10.77;;;6.67;;